createdAt,value
2018-09-05T00:02:10.000Z,75.70
2018-09-05T00:05:34.630Z,75.90
2018-09-05T00:08:03.305Z,76.10
2018-09-05T00:10:31.944Z,76.60
2018-09-05T00:13:00.617Z,76.80
2018-09-05T00:15:29.295Z,77.30
2018-09-05T00:17:57.946Z,77.50
2018-09-05T00:20:26.581Z,77.50
2018-09-05T00:22:55.213Z,77.20
2018-09-05T00:25:23.908Z,77.30
2018-09-05T00:27:52.532Z,77.40
2018-09-05T00:30:21.305Z,77.80
2018-09-05T00:32:49.991Z,77.80
2018-09-05T00:35:18.648Z,77.90
2018-09-05T00:37:47.289Z,77.90
2018-09-05T00:40:15.928Z,77.30
2018-09-05T00:42:44.627Z,77.10
2018-09-05T00:45:13.241Z,77.40
2018-09-05T00:47:41.844Z,77.40
2018-09-05T00:50:10.494Z,77.10
2018-09-05T00:52:39.127Z,76.90
2018-09-05T00:55:07.761Z,77.30
2018-09-05T00:57:36.375Z,77.20
2018-09-05T01:00:05.633Z,77.80
2018-09-05T01:02:34.292Z,78.00
2018-09-05T01:05:02.990Z,78.20
2018-09-05T01:07:31.675Z,77.90
2018-09-05T01:10:00.350Z,77.20
2018-09-05T01:12:28.977Z,77.40
2018-09-05T01:14:57.769Z,77.90
2018-09-05T01:17:26.408Z,78.20
2018-09-05T01:19:55.038Z,78.50
2018-09-05T01:22:23.647Z,78.60
2018-09-05T01:24:52.260Z,79.00
2018-09-05T01:27:20.917Z,79.30
2018-09-05T01:29:49.517Z,79.70
2018-09-05T01:32:18.145Z,79.80
2018-09-05T01:34:46.754Z,80.00
2018-09-05T01:37:15.357Z,80.00
2018-09-05T01:39:43.971Z,80.20
2018-09-05T01:42:12.585Z,79.70
2018-09-05T01:44:41.244Z,79.20
2018-09-05T01:47:09.925Z,79.50
2018-09-05T01:49:38.548Z,79.40
2018-09-05T01:52:07.217Z,79.50
2018-09-05T01:54:35.832Z,79.90
2018-09-05T01:57:04.455Z,80.40
2018-09-05T01:59:33.076Z,80.00
2018-09-05T02:02:01.709Z,79.70
2018-09-05T02:04:30.329Z,79.80
2018-09-05T02:06:59.023Z,80.10
2018-09-05T02:09:27.679Z,80.70
2018-09-05T02:11:56.308Z,81.60
2018-09-05T02:14:24.972Z,81.30
2018-09-05T02:16:53.585Z,81.10
2018-09-05T02:19:22.228Z,82.20
2018-09-05T02:21:50.881Z,81.40
2018-09-05T02:24:19.515Z,81.70
2018-09-05T02:26:48.144Z,81.80
2018-09-05T02:29:16.756Z,81.90
2018-09-05T02:31:45.408Z,82.20
2018-09-05T02:34:14.075Z,82.30
2018-09-05T02:36:42.673Z,82.50
2018-09-05T02:39:11.978Z,82.60
2018-09-05T02:41:40.777Z,82.90
2018-09-05T02:44:14.840Z,83.30
2018-09-05T02:46:43.511Z,83.90
2018-09-05T02:49:12.125Z,84.10
2018-09-05T02:51:40.761Z,84.20
2018-09-05T02:54:09.401Z,84.50
2018-09-05T02:56:38.016Z,84.80
2018-09-05T02:59:06.642Z,84.90
2018-09-05T03:01:35.427Z,85.10
2018-09-05T03:04:04.096Z,85.30
2018-09-05T03:06:32.735Z,85.40
2018-09-05T03:09:01.400Z,85.40
2018-09-05T03:11:30.057Z,85.00
2018-09-05T03:13:58.670Z,85.00
2018-09-05T03:16:27.341Z,85.00
2018-09-05T03:18:55.959Z,85.20
2018-09-05T03:21:24.661Z,85.30
2018-09-05T03:23:53.329Z,85.50
2018-09-05T03:26:21.933Z,85.60
2018-09-05T03:28:50.585Z,85.90
2018-09-05T03:31:19.180Z,86.00
2018-09-05T03:33:47.859Z,86.20
2018-09-05T03:36:16.472Z,86.30
2018-09-05T03:38:45.138Z,86.40
2018-09-05T03:41:13.762Z,86.60
2018-09-05T03:43:42.424Z,86.70
2018-09-05T03:46:11.108Z,86.60
2018-09-05T03:48:39.760Z,86.90
2018-09-05T03:51:08.362Z,87.20
2018-09-05T03:53:36.985Z,87.20
2018-09-05T03:56:05.716Z,87.40
2018-09-05T03:58:34.345Z,87.50
2018-09-05T04:01:02.973Z,87.60
2018-09-05T04:03:31.592Z,88.00
2018-09-05T04:06:00.205Z,88.40
2018-09-05T04:08:28.817Z,88.60
2018-09-05T04:10:57.449Z,89.00
2018-09-05T04:13:26.064Z,89.10
2018-09-05T04:15:54.713Z,89.10
2018-09-05T04:18:23.364Z,89.00
2018-09-05T04:20:51.992Z,88.90
2018-09-05T04:23:20.645Z,89.00
2018-09-05T04:25:49.266Z,88.90
2018-09-05T04:28:17.876Z,89.00
2018-09-05T04:30:46.536Z,89.00
2018-09-05T04:33:15.163Z,89.30
2018-09-05T04:35:43.816Z,89.60
2018-09-05T04:38:12.433Z,90.00
2018-09-05T04:40:41.027Z,90.20
2018-09-05T04:43:09.624Z,90.30
2018-09-05T04:45:38.250Z,90.30
2018-09-05T04:48:06.921Z,90.20
2018-09-05T04:50:35.652Z,90.20
2018-09-05T04:53:04.258Z,90.10
2018-09-05T04:55:32.893Z,90.30
2018-09-05T04:58:01.545Z,90.40
2018-09-05T05:00:30.137Z,90.40
2018-09-05T05:02:58.786Z,90.40
2018-09-05T05:05:27.437Z,90.40
2018-09-05T05:07:56.041Z,90.20
2018-09-05T05:10:24.675Z,90.00
2018-09-05T05:12:53.280Z,90.00
2018-09-05T05:15:21.884Z,90.10
2018-09-05T05:17:50.484Z,89.90
2018-09-05T05:20:19.121Z,89.50
2018-09-05T05:22:47.716Z,89.50
2018-09-05T05:25:16.456Z,90.00
2018-09-05T05:27:45.074Z,90.20
2018-09-05T05:30:13.680Z,90.50
2018-09-05T05:32:42.385Z,90.60
2018-09-05T05:35:10.972Z,90.90
2018-09-05T05:37:39.584Z,91.00
2018-09-05T05:40:08.216Z,91.20
2018-09-05T05:42:37.572Z,91.30
2018-09-05T05:45:06.280Z,91.40
2018-09-05T05:47:35.250Z,91.30
2018-09-05T05:50:04.243Z,91.30
2018-09-05T05:52:32.976Z,91.40
2018-09-05T05:55:02.261Z,91.30
2018-09-05T05:57:30.943Z,91.30
2018-09-05T05:59:59.546Z,91.30
2018-09-05T06:02:28.167Z,91.20
2018-09-05T06:04:57.150Z,91.20
2018-09-05T06:07:25.757Z,91.20
2018-09-05T06:09:54.369Z,91.10
2018-09-05T06:12:22.968Z,91.20
2018-09-05T06:14:51.716Z,91.20
2018-09-05T06:17:20.509Z,91.00
2018-09-05T06:19:49.176Z,90.90
2018-09-05T06:22:17.908Z,91.10
2018-09-05T06:24:46.623Z,91.10
2018-09-05T06:27:15.226Z,91.00
2018-09-05T06:29:43.875Z,91.00
2018-09-05T06:32:12.472Z,90.80
2018-09-05T06:34:41.100Z,90.40
2018-09-05T06:37:09.752Z,90.60
2018-09-05T06:39:38.373Z,90.60
2018-09-05T06:42:06.991Z,91.20
2018-09-05T06:44:35.592Z,89.90
2018-09-05T06:47:04.276Z,88.60
2018-09-05T06:49:32.908Z,85.30
2018-09-05T06:52:01.589Z,82.90
2018-09-05T06:54:30.419Z,81.30
2018-09-05T06:56:59.127Z,80.20
2018-09-05T06:59:28.252Z,79.30
2018-09-05T07:01:57.108Z,77.40
2018-09-05T07:04:25.692Z,76.10
2018-09-05T07:06:54.335Z,76.00
2018-09-05T07:09:22.924Z,76.50
2018-09-05T07:11:51.515Z,75.20
2018-09-05T07:14:20.122Z,73.80
2018-09-05T07:16:48.741Z,72.00
2018-09-05T07:19:17.468Z,71.00
2018-09-05T07:21:46.180Z,70.20
2018-09-05T07:24:14.773Z,70.00
2018-09-05T07:26:48.358Z,69.80
2018-09-05T07:29:17.100Z,69.50
2018-09-05T07:31:45.718Z,69.30
2018-09-05T07:34:14.336Z,68.40
2018-09-05T07:36:43.705Z,67.50
2018-09-05T07:39:12.382Z,66.50
2018-09-05T07:41:41.000Z,65.80
2018-09-05T07:44:09.629Z,64.90
2018-09-05T07:46:38.259Z,64.00
2018-09-05T07:49:07.528Z,63.40
2018-09-05T07:51:37.513Z,63.00
2018-09-05T07:54:06.509Z,62.30
2018-09-05T07:56:35.366Z,62.10
2018-09-05T07:59:04.444Z,61.80
2018-09-05T08:01:33.133Z,61.30
2018-09-05T08:04:01.882Z,61.00
2018-09-05T08:06:30.557Z,60.40
2018-09-05T08:08:59.199Z,59.50
2018-09-05T08:11:27.866Z,59.20
2018-09-05T08:13:56.483Z,59.20
2018-09-05T08:16:25.116Z,58.50
2018-09-05T08:18:53.740Z,58.40
2018-09-05T08:21:22.369Z,58.40
2018-09-05T08:23:51.025Z,58.00
2018-09-05T08:26:19.680Z,57.70
2018-09-05T08:28:48.380Z,57.50
2018-09-05T08:31:17.041Z,56.80
2018-09-05T08:33:45.731Z,56.30
2018-09-05T08:36:14.604Z,56.00
2018-09-05T08:38:43.091Z,55.70
2018-09-05T08:41:11.942Z,54.60
2018-09-05T08:43:41.275Z,54.40
2018-09-05T08:46:10.114Z,53.80
2018-09-05T08:48:38.752Z,53.40
2018-09-05T08:51:07.386Z,52.50
2018-09-05T08:53:35.997Z,52.30
2018-09-05T08:56:04.698Z,51.90
2018-09-05T08:58:33.372Z,51.00
2018-09-05T09:01:02.009Z,50.80
2018-09-05T09:03:30.628Z,50.10
2018-09-05T09:05:59.285Z,49.50
2018-09-05T09:08:27.916Z,48.60
2018-09-05T09:10:56.546Z,48.20
2018-09-05T09:13:25.189Z,47.90
2018-09-05T09:15:53.820Z,47.40
2018-09-05T09:18:23.144Z,46.90
2018-09-05T09:20:51.792Z,46.50
2018-09-05T09:23:20.465Z,46.10
2018-09-05T09:25:49.142Z,46.10
2018-09-05T09:28:17.787Z,45.80
2018-09-05T09:30:46.420Z,45.30
2018-09-05T09:33:15.059Z,45.60
2018-09-05T09:35:43.715Z,45.70
2018-09-05T09:38:12.349Z,45.10
2018-09-05T09:40:40.973Z,44.50
2018-09-05T09:43:09.629Z,44.80
2018-09-05T09:45:38.248Z,43.40
2018-09-05T09:48:07.041Z,43.40
2018-09-05T09:50:35.684Z,43.80
2018-09-05T09:53:04.313Z,43.20
2018-09-05T09:55:32.937Z,42.70
2018-09-05T09:58:01.624Z,43.50
2018-09-05T10:00:35.812Z,42.40
2018-09-05T10:03:09.659Z,42.40
2018-09-05T10:05:43.896Z,41.70
2018-09-05T10:08:18.363Z,41.80
2018-09-05T10:10:52.265Z,41.50
2018-09-05T10:13:26.324Z,41.70
2018-09-05T10:16:00.387Z,41.30
2018-09-05T10:18:31.892Z,41.00
2018-09-05T10:21:00.534Z,40.60
2018-09-05T10:23:29.274Z,40.50
2018-09-05T10:25:57.881Z,40.30
2018-09-05T10:28:26.475Z,40.10
2018-09-05T10:30:55.147Z,39.90
2018-09-05T10:33:23.788Z,39.60
2018-09-05T10:35:52.400Z,39.00
2018-09-05T10:38:21.035Z,39.10
2018-09-05T10:40:49.658Z,39.00
2018-09-05T10:43:18.281Z,38.80
2018-09-05T10:45:47.002Z,38.50
2018-09-05T10:48:15.656Z,38.60
2018-09-05T10:50:44.296Z,38.00
2018-09-05T10:53:12.912Z,37.40
2018-09-05T10:55:41.545Z,37.30
2018-09-05T10:58:10.198Z,36.80
2018-09-05T11:00:38.860Z,35.90
2018-09-05T11:03:07.811Z,35.90
2018-09-05T11:05:36.485Z,36.30
2018-09-05T11:08:05.400Z,36.70
2018-09-05T11:10:34.023Z,36.80
2018-09-05T11:13:02.677Z,36.60
2018-09-05T11:15:31.301Z,36.50
2018-09-05T11:17:59.977Z,35.80
2018-09-05T11:20:28.725Z,36.00
2018-09-05T11:22:57.417Z,35.50
2018-09-05T11:25:26.042Z,35.30
2018-09-05T11:27:54.663Z,35.50
2018-09-05T11:30:23.285Z,35.30
2018-09-05T11:32:51.988Z,35.50
2018-09-05T11:35:20.623Z,36.30
2018-09-05T11:37:49.352Z,35.50
2018-09-05T11:40:18.127Z,35.10
2018-09-05T11:42:46.757Z,35.50
2018-09-05T11:45:15.404Z,35.00
2018-09-05T11:47:44.008Z,35.30
2018-09-05T11:50:12.655Z,35.10
2018-09-05T11:52:41.294Z,35.10
2018-09-05T11:55:09.923Z,35.70
2018-09-05T11:57:38.729Z,35.90
2018-09-05T12:00:07.561Z,36.60
2018-09-05T12:02:36.230Z,37.20
2018-09-05T12:05:04.925Z,37.60
2018-09-05T12:07:33.566Z,37.40
2018-09-05T12:10:02.207Z,37.00
2018-09-05T12:12:30.891Z,37.00
2018-09-05T12:14:59.513Z,36.70
2018-09-05T12:17:28.818Z,36.90
2018-09-05T12:19:57.433Z,37.00
2018-09-05T12:22:26.052Z,36.40
2018-09-05T12:24:54.672Z,36.90
2018-09-05T12:27:23.300Z,36.60
2018-09-05T12:29:51.911Z,36.70
2018-09-05T12:32:20.517Z,37.60
2018-09-05T12:34:49.188Z,38.10
2018-09-05T12:37:17.791Z,38.40
2018-09-05T12:39:46.455Z,38.40
2018-09-05T12:42:15.088Z,38.40
2018-09-05T12:44:43.769Z,38.20
2018-09-05T12:47:12.381Z,38.30
2018-09-05T12:49:40.993Z,38.00
2018-09-05T12:52:09.618Z,37.60
2018-09-05T12:54:38.405Z,37.80
2018-09-05T12:57:07.233Z,37.80
2018-09-05T12:59:35.857Z,37.50
2018-09-05T13:02:04.505Z,37.40
2018-09-05T13:04:33.152Z,37.30
2018-09-05T13:07:01.895Z,37.00
2018-09-05T13:09:30.614Z,36.90
2018-09-05T13:11:59.457Z,36.80
2018-09-05T13:14:28.117Z,36.60
2018-09-05T13:16:56.772Z,36.50
2018-09-05T13:19:25.382Z,36.50
2018-09-05T13:21:54.008Z,36.40
2018-09-05T13:24:22.796Z,36.70
2018-09-05T13:26:51.391Z,36.90
2018-09-05T13:29:20.013Z,37.00
2018-09-05T13:31:48.677Z,37.10
2018-09-05T13:34:17.290Z,37.30
2018-09-05T13:36:45.943Z,37.50
2018-09-05T13:39:14.564Z,37.50
2018-09-05T13:41:43.179Z,37.70
2018-09-05T13:44:11.913Z,37.50
2018-09-05T13:46:40.554Z,37.30
2018-09-05T13:49:09.171Z,37.20
2018-09-05T13:51:37.903Z,37.10
2018-09-05T13:54:06.686Z,36.90
2018-09-05T13:56:35.309Z,37.40
2018-09-05T13:59:03.925Z,37.60
2018-09-05T14:01:32.576Z,37.80
2018-09-05T14:04:01.181Z,38.30
2018-09-05T14:06:29.812Z,38.50
2018-09-05T14:08:58.430Z,38.90
2018-09-05T14:11:27.058Z,39.10
2018-09-05T14:13:55.721Z,39.30
2018-09-05T14:16:24.334Z,39.20
2018-09-05T14:18:52.960Z,40.30
2018-09-05T14:21:21.564Z,39.60
2018-09-05T14:23:50.345Z,39.50
2018-09-05T14:26:18.963Z,39.80
2018-09-05T14:28:47.648Z,40.20
2018-09-05T14:31:16.268Z,39.80
2018-09-05T14:33:45.053Z,39.50
2018-09-05T14:36:13.693Z,40.00
2018-09-05T14:38:42.744Z,40.20
2018-09-05T14:41:11.363Z,40.50
2018-09-05T14:43:39.982Z,40.90
2018-09-05T14:46:08.925Z,40.80
2018-09-05T14:48:37.622Z,40.30
2018-09-05T14:51:06.346Z,40.10
2018-09-05T14:53:34.976Z,40.50
2018-09-05T14:56:03.613Z,40.60
2018-09-05T14:58:32.233Z,40.30
2018-09-05T15:01:00.847Z,40.10
2018-09-05T15:03:29.473Z,40.50
2018-09-05T15:05:58.085Z,41.00
2018-09-05T15:08:26.699Z,40.80
2018-09-05T15:10:55.402Z,40.70
2018-09-05T15:13:24.029Z,40.70
2018-09-05T15:15:52.723Z,40.00
2018-09-05T15:18:21.456Z,39.90
2018-09-05T15:20:50.116Z,40.10
2018-09-05T15:23:18.806Z,39.70
2018-09-05T15:25:47.492Z,39.40
2018-09-05T15:28:16.157Z,39.10
2018-09-05T15:30:44.804Z,39.20
2018-09-05T15:33:13.449Z,39.40
2018-09-05T15:35:42.080Z,39.60
2018-09-05T15:38:10.721Z,39.40
2018-09-05T15:40:39.513Z,39.30
2018-09-05T15:43:08.164Z,39.30
2018-09-05T15:45:36.832Z,39.40
2018-09-05T15:48:05.688Z,39.90
2018-09-05T15:50:34.345Z,39.90
2018-09-05T15:53:02.997Z,40.20
2018-09-05T15:55:31.637Z,40.00
2018-09-05T15:58:00.398Z,40.00
2018-09-05T16:00:29.071Z,39.90
2018-09-05T16:02:57.715Z,40.10
2018-09-05T16:05:26.940Z,40.30
2018-09-05T16:07:55.646Z,40.80
2018-09-05T16:10:24.284Z,41.40
2018-09-05T16:12:52.901Z,41.50
2018-09-05T16:15:21.611Z,41.20
2018-09-05T16:17:50.317Z,41.00
2018-09-05T16:20:18.983Z,40.80
2018-09-05T16:22:47.640Z,41.10
2018-09-05T16:25:16.276Z,41.70
2018-09-05T16:27:44.957Z,42.30
2018-09-05T16:30:13.618Z,43.00
2018-09-05T16:32:42.240Z,43.50
2018-09-05T16:35:10.887Z,43.40
2018-09-05T16:37:39.525Z,43.70
2018-09-05T16:40:08.210Z,44.20
2018-09-05T16:42:36.885Z,44.80
2018-09-05T16:45:05.802Z,45.20
2018-09-05T16:47:34.451Z,45.50
2018-09-05T16:50:03.191Z,45.30
2018-09-05T16:52:31.832Z,46.10
2018-09-05T16:55:00.576Z,46.20
2018-09-05T16:57:29.274Z,46.70
2018-09-05T16:59:57.933Z,46.60
2018-09-05T17:02:26.653Z,47.10
2018-09-05T17:04:55.308Z,47.10
2018-09-05T17:07:23.979Z,47.40
2018-09-05T17:09:52.687Z,47.30
2018-09-05T17:12:21.324Z,47.30
2018-09-05T17:14:49.972Z,47.40
2018-09-05T17:17:18.615Z,47.70
2018-09-05T17:19:47.284Z,47.90
2018-09-05T17:22:15.929Z,48.20
2018-09-05T17:24:44.603Z,48.70
2018-09-05T17:27:13.511Z,49.20
2018-09-05T17:29:42.196Z,49.60
2018-09-05T17:32:10.845Z,50.00
2018-09-05T17:34:39.620Z,50.30
2018-09-05T17:37:08.381Z,50.50
2018-09-05T17:39:37.025Z,50.80
2018-09-05T17:42:05.701Z,51.20
2018-09-05T17:44:34.351Z,51.70
2018-09-05T17:47:02.975Z,52.00
2018-09-05T17:49:31.628Z,52.40
2018-09-05T17:52:00.285Z,52.70
2018-09-05T17:54:28.916Z,53.00
2018-09-05T17:56:57.640Z,53.70
2018-09-05T17:59:26.261Z,54.50
2018-09-05T18:01:55.016Z,54.70
2018-09-05T18:04:23.676Z,54.80
2018-09-05T18:06:52.405Z,55.00
2018-09-05T18:09:21.088Z,55.20
2018-09-05T18:11:49.856Z,55.40
2018-09-05T18:14:18.600Z,56.20
2018-09-05T18:16:47.356Z,55.70
2018-09-05T18:19:15.976Z,55.90
2018-09-05T18:21:44.606Z,56.30
2018-09-05T18:24:13.266Z,56.50
2018-09-05T18:26:41.892Z,57.00
2018-09-05T18:29:10.825Z,57.40
2018-09-05T18:31:39.506Z,57.90
2018-09-05T18:34:08.124Z,57.90
2018-09-05T18:36:36.747Z,58.40
2018-09-05T18:39:07.247Z,59.00
2018-09-05T18:41:35.944Z,59.40
2018-09-05T18:44:04.585Z,60.00
2018-09-05T18:46:33.312Z,60.30
2018-09-05T18:49:01.990Z,60.90
2018-09-05T18:51:30.704Z,61.20
2018-09-05T18:54:06.154Z,61.50
2018-09-05T18:59:22.784Z,62.50
2018-09-05T19:01:53.572Z,63.10
2018-09-05T19:04:22.925Z,63.80
2018-09-05T19:06:51.939Z,64.50
2018-09-05T19:11:56.977Z,65.30
2018-09-05T19:14:25.606Z,65.60
2018-09-05T19:16:54.280Z,66.00
2018-09-05T19:19:23.056Z,66.80
2018-09-05T19:21:51.707Z,67.10
2018-09-05T19:24:21.365Z,67.40
2018-09-05T19:26:50.055Z,67.70
2018-09-05T19:29:18.684Z,68.00
2018-09-05T19:31:50.447Z,68.10
2018-09-05T19:34:19.806Z,68.60
2018-09-05T19:36:49.990Z,69.10
2018-09-05T19:39:18.820Z,69.30
2018-09-05T19:41:52.675Z,70.50
2018-09-05T19:44:24.214Z,70.10
2018-09-05T19:46:55.612Z,70.50
2018-09-05T19:49:26.788Z,71.00
2018-09-05T19:51:56.086Z,71.00
2018-09-05T19:54:24.926Z,71.30
2018-09-05T19:56:56.488Z,71.60
2018-09-05T19:59:34.093Z,71.70
2018-09-05T20:02:19.028Z,71.60
2018-09-05T20:04:47.918Z,71.00
2018-09-05T20:07:18.527Z,70.40
2018-09-05T20:09:47.442Z,71.20
2018-09-05T20:12:16.101Z,72.00
2018-09-05T20:14:44.728Z,72.40
2018-09-05T20:17:13.383Z,72.60
2018-09-05T20:19:42.081Z,72.90
2018-09-05T20:22:17.573Z,73.10
2018-09-05T20:24:51.769Z,73.20
2018-09-05T20:27:28.434Z,73.30
2018-09-05T20:30:06.790Z,73.40
2018-09-05T20:32:48.882Z,73.40
2018-09-05T20:35:23.456Z,73.90
2018-09-05T20:37:53.498Z,74.10
2018-09-05T20:40:22.142Z,74.40
2018-09-05T20:42:50.788Z,74.80
2018-09-05T20:45:19.430Z,75.60
2018-09-05T20:47:48.104Z,76.20
2018-09-05T20:50:16.723Z,76.00
2018-09-05T20:52:45.367Z,75.90
2018-09-05T20:55:20.440Z,76.40
2018-09-05T20:57:50.728Z,77.00
2018-09-05T21:00:23.238Z,77.50
2018-09-05T21:03:01.046Z,77.50
2018-09-05T21:05:29.787Z,77.60
2018-09-05T21:07:59.749Z,78.00
2018-09-05T21:10:39.887Z,77.90
2018-09-05T21:13:17.807Z,78.00
2018-09-05T21:15:50.618Z,77.50
2018-09-05T21:18:24.990Z,78.40
2018-09-05T21:21:03.063Z,78.80
2018-09-05T21:26:17.184Z,80.30
2018-09-05T21:28:49.667Z,80.40
2018-09-05T21:31:18.379Z,80.30
2018-09-05T21:33:47.005Z,80.30
2018-09-05T21:36:15.936Z,80.50
2018-09-05T21:38:59.346Z,80.80
2018-09-05T21:41:29.559Z,80.80
2018-09-05T21:44:03.905Z,81.00
2018-09-05T21:46:32.700Z,81.50
2018-09-05T21:49:01.357Z,81.50
2018-09-05T21:51:29.984Z,81.30
2018-09-05T21:53:58.700Z,81.40
2018-09-05T21:56:27.375Z,81.80
2018-09-05T21:58:56.036Z,81.70
2018-09-05T22:01:24.680Z,82.00
2018-09-05T22:03:53.325Z,82.30
2018-09-05T22:06:21.975Z,82.60
2018-09-05T22:08:50.609Z,82.50
2018-09-05T22:11:24.755Z,82.90
2018-09-05T22:13:54.096Z,83.60
2018-09-05T22:16:22.712Z,83.90
2018-09-05T22:18:51.548Z,84.00
2018-09-05T22:21:20.188Z,84.70
2018-09-05T22:23:48.892Z,85.20
2018-09-05T22:26:17.601Z,85.40
2018-09-05T22:28:46.328Z,85.60
2018-09-05T22:31:15.000Z,85.40
2018-09-05T22:33:43.675Z,85.60
2018-09-05T22:36:12.360Z,85.40
2018-09-05T22:38:41.059Z,85.50
2018-09-05T22:41:09.684Z,85.70
2018-09-05T22:43:49.105Z,86.10
2018-09-05T22:46:28.672Z,86.40
2018-09-05T22:49:08.073Z,86.40
2018-09-05T22:52:20.089Z,86.60
2018-09-05T22:55:07.605Z,86.90
2018-09-05T22:57:59.300Z,86.80
2018-09-05T23:00:45.480Z,87.20
2018-09-05T23:05:30.418Z,87.20
2018-09-05T23:08:14.138Z,87.40
2018-09-05T23:10:53.633Z,87.90
2018-09-05T23:14:33.039Z,88.30
2018-09-05T23:19:17.410Z,88.80
2018-09-05T23:21:46.045Z,89.10
2018-09-05T23:24:14.696Z,89.10
2018-09-05T23:26:43.413Z,89.50
2018-09-05T23:29:12.081Z,89.90
2018-09-05T23:31:40.728Z,90.10
2018-09-05T23:34:09.406Z,90.20
2018-09-05T23:36:38.117Z,90.70
2018-09-05T23:39:08.292Z,91.10
2018-09-05T23:41:36.940Z,91.40
2018-09-05T23:44:05.663Z,91.70
2018-09-05T23:46:34.301Z,92.10
2018-09-05T23:49:03.002Z,92.80
2018-09-05T23:51:31.677Z,92.40
2018-09-05T23:54:00.417Z,92.20
2018-09-05T23:56:29.197Z,92.60
2018-09-05T23:58:57.963Z,92.60
